Time;durP1;ratioP1;P1;durP2;ratioP2;P2;SDS_P1;SDS_P2;PMS_P1;PMS_P2;Temp;Humidity;BMP_temperature;BMP_pressure;BME280_temperature;BME280_humidity;BME280_pressure;Samples;Min_cycle;Max_cycle;Signal;HPM_P1;HPM_P2
2023/09/04 00:00:43;;;;;;;4.47;4.03;;;;;;;;;;5061646;28;20851;-81
2023/09/04 00:03:10;;;;;;;4.93;4.43;;;;;;;;;;5061520;28;20472;-80
2023/09/04 00:05:39;;;;;;;4.90;4.00;;;;;;;;;;5061433;28;20456;-81
2023/09/04 00:08:06;;;;;;;3.80;3.50;;;;;;;;;;5061624;28;20988;-81
2023/09/04 00:10:33;;;;;;;4.20;3.80;;;;;;;;;;5061825;28;20476;-81
2023/09/04 00:13:01;;;;;;;5.33;3.80;;;;;;;;;;5060837;28;20508;-81
2023/09/04 00:15:28;;;;;;;4.93;4.43;;;;;;;;;;5060910;28;20461;-81
2023/09/04 00:17:55;;;;;;;3.80;3.50;;;;;;;;;;5060351;28;20469;-82
2023/09/04 00:20:23;;;;;;;5.57;4.13;;;;;;;;;;5060893;28;20499;-81
2023/09/04 00:22:53;;;;;;;3.77;3.47;;;;;;;;;;5059639;28;20468;-81
2023/09/04 00:25:20;;;;;;;4.77;4.23;;;;;;;;;;5060672;28;20941;-81
2023/09/04 00:27:47;;;;;;;4.43;3.60;;;;;;;;;;5060736;28;20479;-81
2023/09/04 00:30:15;;;;;;;3.87;2.80;;;;;;;;;;5059277;28;20512;-81
2023/09/04 00:32:42;;;;;;;11.73;4.20;;;;;;;;;;5059482;28;20517;-81
2023/09/04 00:35:12;;;;;;;4.27;3.10;;;;;;;;;;5060872;28;20456;-81
2023/09/04 00:37:40;;;;;;;4.23;3.83;;;;;;;;;;5060277;28;20449;-81
2023/09/04 00:40:09;;;;;;;8.03;3.47;;;;;;;;;;5062491;28;20480;-81
2023/09/04 00:42:37;;;;;;;6.83;4.73;;;;;;;;;;5061949;28;20973;-81
2023/09/04 00:45:04;;;;;;;4.17;3.77;;;;;;;;;;5061817;28;20455;-81
2023/09/04 00:47:32;;;;;;;6.43;3.10;;;;;;;;;;5059522;28;20534;-81
2023/09/04 00:50:00;;;;;;;5.93;3.87;;;;;;;;;;5059767;28;20448;-81
2023/09/04 00:52:28;;;;;;;3.73;3.43;;;;;;;;;;5061271;28;20457;-81
2023/09/04 00:54:56;;;;;;;3.50;3.20;;;;;;;;;;5061368;28;20511;-81
2023/09/04 00:57:26;;;;;;;4.00;3.70;;;;;;;;;;5059980;28;20967;-81
2023/09/04 00:59:54;;;;;;;4.00;3.60;;;;;;;;;;5060064;28;20977;-81
2023/09/04 01:02:21;;;;;;;4.60;3.93;;;;;;;;;;5062011;28;20997;-82
2023/09/04 01:04:48;;;;;;;3.37;3.07;;;;;;;;;;5061301;28;20457;-81
2023/09/04 01:07:15;;;;;;;3.70;3.40;;;;;;;;;;5060925;28;20465;-81
2023/09/04 01:09:42;;;;;;;4.70;4.30;;;;;;;;;;5061641;28;20523;-81
2023/09/04 01:12:11;;;;;;;5.27;4.07;;;;;;;;;;5060515;28;20468;-81
2023/09/04 01:14:40;;;;;;;5.07;3.40;;;;;;;;;;5061665;28;20453;-81
2023/09/04 01:17:07;;;;;;;5.13;3.87;;;;;;;;;;5060400;28;20457;-81
2023/09/04 01:19:38;;;;;;;4.00;3.60;;;;;;;;;;5061474;28;20453;-80
2023/09/04 01:22:08;;;;;;;3.93;3.53;;;;;;;;;;5061584;28;20576;-81
2023/09/04 01:24:35;;;;;;;4.33;3.90;;;;;;;;;;5061291;28;20437;-81
2023/09/04 01:27:06;;;;;;;5.30;3.83;;;;;;;;;;5061289;28;20603;-81
2023/09/04 01:29:37;;;;;;;4.57;4.17;;;;;;;;;;5061362;28;20445;-81
2023/09/04 01:32:06;;;;;;;8.00;4.33;;;;;;;;;;5060967;28;20829;-80
2023/09/04 01:34:36;;;;;;;6.27;4.43;;;;;;;;;;5060218;28;20937;-81
2023/09/04 01:37:03;;;;;;;5.40;4.50;;;;;;;;;;5060741;28;20951;-81
2023/09/04 01:39:32;;;;;;;5.00;4.50;;;;;;;;;;5060784;28;20464;-81
2023/09/04 01:41:59;;;;;;;5.20;4.80;;;;;;;;;;5065769;28;20480;-82
2023/09/04 01:44:27;;;;;;;4.93;4.50;;;;;;;;;;5061129;28;20463;-81
2023/09/04 01:46:54;;;;;;;4.67;4.27;;;;;;;;;;5061111;28;20448;-81
2023/09/04 01:49:21;;;;;;;5.07;4.60;;;;;;;;;;5061748;28;20448;-81
2023/09/04 01:51:48;;;;;;;5.57;4.57;;;;;;;;;;5061182;28;20933;-81
2023/09/04 01:54:15;;;;;;;5.37;4.67;;;;;;;;;;5061498;28;20475;-81
2023/09/04 01:56:44;;;;;;;7.53;5.77;;;;;;;;;;5060519;28;20457;-81
2023/09/04 01:59:11;;;;;;;5.60;5.00;;;;;;;;;;5063152;28;20487;-81
2023/09/04 02:01:38;;;;;;;6.97;6.27;;;;;;;;;;5063627;28;20488;-82
2023/09/04 02:04:06;;;;;;;5.07;4.67;;;;;;;;;;5063584;28;20832;-81
2023/09/04 02:06:33;;;;;;;7.73;5.73;;;;;;;;;;5064473;28;20452;-81
2023/09/04 02:09:00;;;;;;;5.30;4.53;;;;;;;;;;5064596;28;20914;-82
2023/09/04 02:11:27;;;;;;;8.40;6.23;;;;;;;;;;5065834;28;20452;-81
2023/09/04 02:13:56;;;;;;;5.90;5.13;;;;;;;;;;5064642;28;20556;-81
2023/09/04 02:16:23;;;;;;;11.83;5.83;;;;;;;;;;5064883;28;20448;-81
2023/09/04 02:18:51;;;;;;;6.93;5.40;;;;;;;;;;5063893;28;20551;-82
2023/09/04 02:21:18;;;;;;;5.50;4.90;;;;;;;;;;5064621;28;20492;-81
2023/09/04 02:23:45;;;;;;;5.90;5.30;;;;;;;;;;5064668;28;20504;-82
2023/09/04 02:26:13;;;;;;;5.80;5.03;;;;;;;;;;5064259;28;20544;-81
2023/09/04 02:28:40;;;;;;;9.27;5.50;;;;;;;;;;5064161;28;20969;-81
2023/09/04 02:31:11;;;;;;;9.37;5.83;;;;;;;;;;5062782;28;20457;-81
2023/09/04 02:33:38;;;;;;;7.97;5.77;;;;;;;;;;5063271;28;20523;-81
2023/09/04 02:36:05;;;;;;;7.80;7.00;;;;;;;;;;5062689;28;20453;-81
2023/09/04 02:38:33;;;;;;;7.10;6.30;;;;;;;;;;5063584;28;20453;-81
2023/09/04 02:41:00;;;;;;;6.90;6.20;;;;;;;;;;5063868;28;20488;-81
2023/09/04 02:43:27;;;;;;;7.60;6.90;;;;;;;;;;5062584;28;20468;-81
2023/09/04 02:45:57;;;;;;;9.03;6.73;;;;;;;;;;5062284;28;20934;-81
2023/09/04 02:48:25;;;;;;;8.73;6.37;;;;;;;;;;5062702;28;20484;-81
2023/09/04 02:50:52;;;;;;;7.40;6.60;;;;;;;;;;5063369;28;20499;-81
2023/09/04 02:53:19;;;;;;;6.30;5.70;;;;;;;;;;5062387;28;20476;-79
2023/09/04 02:55:48;;;;;;;5.97;5.37;;;;;;;;;;5063203;28;20455;-80
2023/09/04 02:58:16;;;;;;;7.77;6.67;;;;;;;;;;5062477;28;20855;-80
2023/09/04 03:00:44;;;;;;;7.07;6.40;;;;;;;;;;5061879;28;20499;-81
2023/09/04 03:03:12;;;;;;;8.83;6.60;;;;;;;;;;5062373;28;20856;-80
2023/09/04 03:05:41;;;;;;;6.97;5.97;;;;;;;;;;5062328;28;20441;-81
2023/09/04 03:08:08;;;;;;;8.30;5.83;;;;;;;;;;5061311;28;20992;-81
2023/09/04 03:10:35;;;;;;;8.07;6.47;;;;;;;;;;5061452;28;20468;-81
2023/09/04 03:13:02;;;;;;;7.13;6.43;;;;;;;;;;5061302;28;20456;-81
2023/09/04 03:15:29;;;;;;;8.47;6.90;;;;;;;;;;5061795;28;20459;-81
2023/09/04 03:17:56;;;;;;;7.33;6.33;;;;;;;;;;5061151;28;20456;-81
2023/09/04 03:20:24;;;;;;;9.50;6.90;;;;;;;;;;5061553;28;20453;-80
2023/09/04 03:22:53;;;;;;;11.13;6.50;;;;;;;;;;5061227;28;20570;-81
2023/09/04 03:25:20;;;;;;;7.60;6.60;;;;;;;;;;5061279;28;20865;-81
2023/09/04 03:27:47;;;;;;;8.20;7.40;;;;;;;;;;5061137;28;20969;-80
2023/09/04 03:30:15;;;;;;;9.40;7.43;;;;;;;;;;5060397;28;20456;-81
2023/09/04 03:32:42;;;;;;;12.40;7.80;;;;;;;;;;5061180;28;20846;-80
2023/09/04 03:35:09;;;;;;;8.83;7.17;;;;;;;;;;5061634;28;20417;-81
2023/09/04 03:37:37;;;;;;;9.27;7.30;;;;;;;;;;5061448;28;20453;-80
2023/09/04 03:40:21;;;;;;;10.20;8.27;;;;;;;;;;5060986;28;20480;-80
2023/09/04 03:42:48;;;;;;;9.80;8.90;;;;;;;;;;5062064;28;20522;-81
2023/09/04 03:45:16;;;;;;;9.40;8.20;;;;;;;;;;5061358;28;20445;-81
2023/09/04 03:47:44;;;;;;;11.70;9.03;;;;;;;;;;5060792;28;20533;-81
2023/09/04 03:50:11;;;;;;;9.83;8.80;;;;;;;;;;5060637;28;20467;-81
2023/09/04 03:52:39;;;;;;;10.57;9.10;;;;;;;;;;5060567;28;20497;-82
2023/09/04 03:55:07;;;;;;;11.53;9.47;;;;;;;;;;5061246;28;20798;-82
2023/09/04 03:57:36;;;;;;;11.23;9.77;;;;;;;;;;5061592;28;20453;-80
2023/09/04 04:00:03;;;;;;;13.63;9.23;;;;;;;;;;5060470;28;20444;-80
2023/09/04 04:02:31;;;;;;;11.93;10.73;;;;;;;;;;5060601;28;20502;-81
2023/09/04 04:04:58;;;;;;;17.87;10.20;;;;;;;;;;5060805;28;20514;-81
2023/09/04 04:07:25;;;;;;;13.33;9.50;;;;;;;;;;5060776;28;20457;-81
2023/09/04 04:09:52;;;;;;;12.30;9.20;;;;;;;;;;5061381;28;20464;-81
2023/09/04 04:12:22;;;;;;;13.80;10.30;;;;;;;;;;5061331;28;20496;-81
2023/09/04 04:14:55;;;;;;;13.00;10.80;;;;;;;;;;5061352;28;20449;-81
2023/09/04 04:17:22;;;;;;;10.00;9.00;;;;;;;;;;5061493;28;20506;-81
2023/09/04 04:19:53;;;;;;;13.87;9.17;;;;;;;;;;5060714;28;20961;-81
2023/09/04 04:22:20;;;;;;;10.97;8.87;;;;;;;;;;5061001;28;20496;-81
2023/09/04 04:24:48;;;;;;;8.97;7.40;;;;;;;;;;5060464;28;20433;-81
2023/09/04 04:27:16;;;;;;;9.93;8.07;;;;;;;;;;5060753;28;20504;-81
2023/09/04 04:29:43;;;;;;;10.50;8.83;;;;;;;;;;5058127;28;20460;-80
2023/09/04 04:32:12;;;;;;;8.07;7.17;;;;;;;;;;5058427;28;20551;-80
2023/09/04 04:34:39;;;;;;;13.10;9.00;;;;;;;;;;5059516;28;20448;-81
2023/09/04 04:37:06;;;;;;;11.03;8.30;;;;;;;;;;5059517;28;20946;-81
2023/09/04 04:39:33;;;;;;;10.03;8.57;;;;;;;;;;5059589;28;20463;-80
2023/09/04 04:42:00;;;;;;;9.50;8.27;;;;;;;;;;5058424;28;20507;-81
2023/09/04 04:44:28;;;;;;;11.27;9.07;;;;;;;;;;5058932;28;20467;-81
2023/09/04 04:46:55;;;;;;;9.43;8.43;;;;;;;;;;5059603;28;20456;-82
2023/09/04 04:49:24;;;;;;;11.57;8.67;;;;;;;;;;5059076;28;20835;-81
2023/09/04 04:51:51;;;;;;;11.17;9.17;;;;;;;;;;5059025;28;20840;-80
2023/09/04 04:54:19;;;;;;;8.93;7.90;;;;;;;;;;5059072;28;20460;-81
2023/09/04 04:56:47;;;;;;;8.77;7.83;;;;;;;;;;5058675;28;20491;-81
2023/09/04 04:59:14;;;;;;;6.80;6.10;;;;;;;;;;5058935;28;20461;-81
2023/09/04 05:01:42;;;;;;;8.10;7.30;;;;;;;;;;5059180;28;20487;-81
2023/09/04 05:04:09;;;;;;;7.13;6.43;;;;;;;;;;5059001;28;20487;-81
2023/09/04 05:06:37;;;;;;;7.53;6.77;;;;;;;;;;5059126;28;20456;-80
2023/09/04 05:09:05;;;;;;;6.63;5.80;;;;;;;;;;5059050;28;20467;-80
2023/09/04 05:11:33;;;;;;;8.40;6.10;;;;;;;;;;5059242;28;20472;-81
2023/09/04 05:14:00;;;;;;;6.30;5.70;;;;;;;;;;5058782;28;20545;-81
2023/09/04 05:16:27;;;;;;;8.70;6.10;;;;;;;;;;5058790;28;20461;-82
2023/09/04 05:18:54;;;;;;;5.80;5.20;;;;;;;;;;5057806;28;20476;-81
2023/09/04 05:21:23;;;;;;;8.63;6.27;;;;;;;;;;5057343;28;21096;-78
2023/09/04 05:23:52;;;;;;;7.60;6.70;;;;;;;;;;5056936;28;20496;-81
2023/09/04 05:26:19;;;;;;;7.97;7.20;;;;;;;;;;5050961;28;20457;-80
2023/09/04 05:28:46;;;;;;;8.00;5.97;;;;;;;;;;5037854;28;20825;-80
2023/09/04 05:31:14;;;;;;;9.60;7.00;;;;;;;;;;5037760;28;20457;-80
2023/09/04 05:33:41;;;;;;;6.40;5.80;;;;;;;;;;5042255;28;20569;-80
2023/09/04 05:36:10;;;;;;;6.50;5.90;;;;;;;;;;5042088;28;20516;-80
2023/09/04 05:38:37;;;;;;;7.70;6.20;;;;;;;;;;5041292;28;20457;-82
2023/09/04 05:41:06;;;;;;;7.77;6.97;;;;;;;;;;5040913;28;20814;-81
2023/09/04 05:43:33;;;;;;;7.63;6.70;;;;;;;;;;5041099;28;20847;-81
2023/09/04 05:46:00;;;;;;;6.47;5.83;;;;;;;;;;5041167;28;20433;-81
2023/09/04 05:48:28;;;;;;;7.03;6.10;;;;;;;;;;5041766;28;20457;-82
2023/09/04 05:50:55;;;;;;;9.97;8.10;;;;;;;;;;5041362;28;20970;-82
2023/09/04 05:53:24;;;;;;;6.83;6.00;;;;;;;;;;5040901;28;20472;-80
2023/09/04 05:56:04;;;;;;;6.30;5.70;;;;;;;;;;5040903;28;20450;-81
2023/09/04 05:58:33;;;;;;;5.80;5.17;;;;;;;;;;5040543;28;20499;-82
2023/09/04 06:01:00;;;;;;;6.33;5.73;;;;;;;;;;5041222;28;20456;-82
2023/09/04 06:03:28;;;;;;;6.83;6.13;;;;;;;;;;5040823;28;20533;-81
2023/09/04 06:05:55;;;;;;;6.33;5.83;;;;;;;;;;5041827;28;20532;-81
2023/09/04 06:08:22;;;;;;;7.13;4.90;;;;;;;;;;5041371;28;20464;-81
2023/09/04 06:10:49;;;;;;;5.83;4.93;;;;;;;;;;5042044;28;20976;-78
2023/09/04 06:13:17;;;;;;;9.73;4.40;;;;;;;;;;5041493;28;20524;-79
2023/09/04 06:15:46;;;;;;;7.13;4.53;;;;;;;;;;5042182;28;20944;-82
2023/09/04 06:18:13;;;;;;;4.60;4.20;;;;;;;;;;5040874;28;20453;-79
2023/09/04 06:20:40;;;;;;;3.97;3.67;;;;;;;;;;5040674;28;20450;-79
2023/09/04 06:23:07;;;;;;;4.30;3.90;;;;;;;;;;5043590;28;20477;-79
2023/09/04 06:25:41;;;;;;;5.93;4.17;;;;;;;;;;5061084;28;20445;-76
2023/09/04 06:28:09;;;;;;;6.67;3.90;;;;;;;;;;5058600;28;20460;-79
2023/09/04 06:30:36;;;;;;;4.37;4.07;;;;;;;;;;5057814;28;20455;-78
2023/09/04 06:33:05;;;;;;;4.70;3.80;;;;;;;;;;5059584;28;20828;-78
2023/09/04 06:35:32;;;;;;;4.77;4.07;;;;;;;;;;5059413;28;20549;-79
2023/09/04 06:38:00;;;;;;;6.30;4.23;;;;;;;;;;5043103;28;20454;-80
2023/09/04 06:40:28;;;;;;;4.37;3.97;;;;;;;;;;5039606;28;20450;-79
2023/09/04 06:42:55;;;;;;;5.97;4.60;;;;;;;;;;5037657;28;20489;-78
2023/09/04 06:45:22;;;;;;;8.07;4.60;;;;;;;;;;5038315;28;20458;-79
2023/09/04 06:47:50;;;;;;;7.73;4.80;;;;;;;;;;5040111;28;20914;-79
2023/09/04 06:50:18;;;;;;;3.83;3.40;;;;;;;;;;5041317;28;20893;-81
2023/09/04 06:52:46;;;;;;;4.40;3.50;;;;;;;;;;5039730;28;20470;-81
2023/09/04 06:55:13;;;;;;;8.60;4.50;;;;;;;;;;5039136;28;20454;-81
2023/09/04 06:57:40;;;;;;;9.83;4.20;;;;;;;;;;5039706;28;20461;-81
2023/09/04 07:00:10;;;;;;;8.70;4.40;;;;;;;;;;5038383;28;20800;-81
2023/09/04 07:02:38;;;;;;;7.13;4.40;;;;;;;;;;5040048;28;20887;-80
2023/09/04 07:05:07;;;;;;;5.00;4.50;;;;;;;;;;5039718;28;20454;-81
2023/09/04 07:07:37;;;;;;;5.00;4.60;;;;;;;;;;5039558;28;20453;-81
2023/09/04 07:10:04;;;;;;;5.13;4.53;;;;;;;;;;5040056;28;20496;-80
2023/09/04 07:12:32;;;;;;;4.37;3.97;;;;;;;;;;5039881;28;20474;-80
2023/09/04 07:14:59;;;;;;;4.50;4.10;;;;;;;;;;5039149;28;20462;-80
2023/09/04 07:17:26;;;;;;;4.43;3.70;;;;;;;;;;5040583;28;20489;-80
2023/09/04 07:19:53;;;;;;;4.97;4.57;;;;;;;;;;5040888;28;20532;-81
2023/09/04 07:22:21;;;;;;;6.40;3.33;;;;;;;;;;5039658;28;20997;-80
2023/09/04 07:24:51;;;;;;;9.33;3.60;;;;;;;;;;5039504;28;20504;-80
2023/09/04 07:27:18;;;;;;;4.57;4.17;;;;;;;;;;5040311;28;20453;-80
2023/09/04 07:29:45;;;;;;;5.13;3.20;;;;;;;;;;5041019;28;20472;-81
2023/09/04 07:32:12;;;;;;;5.30;4.57;;;;;;;;;;5040490;28;20581;-81
2023/09/04 07:34:40;;;;;;;5.73;4.00;;;;;;;;;;5040445;28;20458;-80
2023/09/04 07:37:07;;;;;;;8.23;4.00;;;;;;;;;;5039434;28;20480;-80
2023/09/04 07:39:34;;;;;;;4.40;4.00;;;;;;;;;;5039817;28;20558;-80
2023/09/04 07:42:03;;;;;;;4.80;4.17;;;;;;;;;;5039888;28;20498;-80
2023/09/04 07:44:31;;;;;;;10.20;4.57;;;;;;;;;;5039704;28;20468;-80
2023/09/04 07:46:58;;;;;;;4.87;4.47;;;;;;;;;;5038605;28;20519;-81
2023/09/04 07:49:25;;;;;;;4.93;4.50;;;;;;;;;;5038477;28;20458;-80
2023/09/04 07:51:53;;;;;;;6.80;4.97;;;;;;;;;;5038677;28;20470;-79
2023/09/04 07:54:21;;;;;;;6.13;3.90;;;;;;;;;;5039310;28;20434;-80
2023/09/04 07:56:48;;;;;;;9.23;4.40;;;;;;;;;;5040077;28;20489;-80
2023/09/04 07:59:17;;;;;;;4.37;3.83;;;;;;;;;;5039675;28;20460;-80
2023/09/04 08:01:44;;;;;;;5.20;4.70;;;;;;;;;;5037084;28;20947;-81
2023/09/04 08:04:11;;;;;;;4.30;3.90;;;;;;;;;;5038722;28;20557;-79
2023/09/04 08:06:38;;;;;;;6.27;4.57;;;;;;;;;;5039390;28;20948;-79
2023/09/04 08:09:05;;;;;;;4.43;3.90;;;;;;;;;;5038957;28;20494;-80
2023/09/04 08:11:32;;;;;;;4.30;3.93;;;;;;;;;;5039291;28;20488;-79
2023/09/04 08:14:00;;;;;;;4.97;3.80;;;;;;;;;;5039325;28;20466;-79
2023/09/04 08:16:28;;;;;;;4.67;4.23;;;;;;;;;;5039697;28;20472;-80
2023/09/04 08:18:55;;;;;;;5.27;3.73;;;;;;;;;;5038397;28;20918;-80
2023/09/04 08:21:22;;;;;;;8.83;4.30;;;;;;;;;;5037831;28;20450;-80
2023/09/04 08:23:50;;;;;;;6.03;4.93;;;;;;;;;;5037363;28;21001;-79
2023/09/04 08:26:17;;;;;;;7.53;3.60;;;;;;;;;;5036841;28;20451;-79
2023/09/04 08:28:44;;;;;;;4.97;4.47;;;;;;;;;;5038495;28;20528;-80
2023/09/04 08:31:11;;;;;;;5.20;4.70;;;;;;;;;;5038677;28;20460;-80
2023/09/04 08:33:40;;;;;;;4.63;4.23;;;;;;;;;;5039298;28;20580;-79
2023/09/04 08:36:07;;;;;;;5.97;4.40;;;;;;;;;;5039684;28;20441;-79
2023/09/04 08:38:34;;;;;;;5.00;4.00;;;;;;;;;;5039769;28;20438;-79
2023/09/04 08:41:02;;;;;;;5.43;4.93;;;;;;;;;;5038442;28;20450;-79
2023/09/04 08:43:31;;;;;;;4.47;4.07;;;;;;;;;;5038612;28;20546;-79
2023/09/04 08:46:00;;;;;;;5.10;4.70;;;;;;;;;;5039434;28;20456;-79
2023/09/04 08:48:30;;;;;;;5.70;4.23;;;;;;;;;;5037925;28;20552;-78
2023/09/04 08:50:59;;;;;;;4.60;4.20;;;;;;;;;;5038561;28;20461;-81
2023/09/04 08:53:27;;;;;;;5.97;4.30;;;;;;;;;;5038156;28;20575;-81
2023/09/04 08:55:55;;;;;;;4.70;4.30;;;;;;;;;;5037782;28;20458;-79
2023/09/04 08:58:22;;;;;;;4.37;4.07;;;;;;;;;;5038672;28;20462;-79
2023/09/04 09:00:49;;;;;;;4.70;4.30;;;;;;;;;;5038348;28;20454;-79
2023/09/04 09:03:17;;;;;;;5.60;3.90;;;;;;;;;;5038842;28;20497;-79
2023/09/04 09:05:46;;;;;;;4.93;3.90;;;;;;;;;;5039206;28;20832;-79
2023/09/04 09:08:14;;;;;;;5.73;3.83;;;;;;;;;;5037067;28;20448;-80
2023/09/04 09:10:42;;;;;;;4.13;3.63;;;;;;;;;;5039199;28;20943;-80
2023/09/04 09:13:09;;;;;;;7.50;4.30;;;;;;;;;;5039610;28;20458;-80
2023/09/04 09:15:36;;;;;;;4.17;3.77;;;;;;;;;;5039774;28;20457;-80
2023/09/04 09:18:04;;;;;;;10.27;4.40;;;;;;;;;;5039404;28;20453;-80
2023/09/04 09:20:32;;;;;;;5.70;3.93;;;;;;;;;;5038769;28;20541;-80
2023/09/04 09:22:59;;;;;;;4.70;4.27;;;;;;;;;;5038878;28;21044;-78
2023/09/04 09:25:28;;;;;;;3.93;3.63;;;;;;;;;;5037003;28;20526;-79
2023/09/04 09:27:59;;;;;;;4.97;4.20;;;;;;;;;;5034700;28;20860;-76
2023/09/04 09:30:29;;;;;;;3.50;3.20;;;;;;;;;;5031747;28;20603;-77
2023/09/04 09:32:58;;;;;;;5.23;4.77;;;;;;;;;;5032363;28;20474;-78
2023/09/04 09:35:25;;;;;;;3.40;3.20;;;;;;;;;;5032698;28;20951;-78
2023/09/04 09:37:54;;;;;;;4.87;4.20;;;;;;;;;;5032457;28;20453;-79
2023/09/04 09:40:22;;;;;;;5.67;4.67;;;;;;;;;;5032090;28;20454;-78
2023/09/04 09:42:50;;;;;;;4.30;3.90;;;;;;;;;;5032176;28;20812;-76
2023/09/04 09:45:18;;;;;;;4.73;3.30;;;;;;;;;;5032219;28;20442;-78
2023/09/04 09:47:45;;;;;;;4.00;3.60;;;;;;;;;;5032414;28;20461;-79
2023/09/04 09:50:12;;;;;;;3.97;3.57;;;;;;;;;;5032827;28;20544;-78
2023/09/04 09:52:39;;;;;;;4.10;3.80;;;;;;;;;;5032073;28;20497;-78
2023/09/04 09:55:07;;;;;;;4.30;4.00;;;;;;;;;;5032009;28;20462;-76
2023/09/04 09:57:35;;;;;;;4.93;4.40;;;;;;;;;;5031658;28;20508;-76
2023/09/04 10:00:05;;;;;;;4.10;3.80;;;;;;;;;;5031934;28;20445;-76
2023/09/04 10:02:33;;;;;;;4.40;3.83;;;;;;;;;;5058680;22;20492;-78
2023/09/04 10:05:01;;;;;;;7.53;3.47;;;;;;;;;;5081221;28;20455;-78
2023/09/04 10:07:29;;;;;;;3.70;3.40;;;;;;;;;;5081513;28;20473;-80
2023/09/04 10:10:02;;;;;;;3.90;3.60;;;;;;;;;;5082000;28;20530;-78
2023/09/04 10:12:34;;;;;;;4.70;3.93;;;;;;;;;;5081699;28;20551;-79
2023/09/04 10:15:01;;;;;;;3.60;3.30;;;;;;;;;;5082153;28;20428;-79
2023/09/04 10:17:36;;;;;;;7.00;3.70;;;;;;;;;;5080938;28;20444;-80
2023/09/04 10:20:04;;;;;;;4.37;3.70;;;;;;;;;;5082540;28;20545;-79
2023/09/04 10:22:34;;;;;;;4.00;3.60;;;;;;;;;;5083754;28;20835;-79
2023/09/04 10:25:04;;;;;;;4.00;3.53;;;;;;;;;;5085332;28;20547;-79
2023/09/04 10:27:33;;;;;;;5.20;3.60;;;;;;;;;;5083080;28;20491;-79
2023/09/04 10:30:04;;;;;;;4.13;3.77;;;;;;;;;;5083674;28;20931;-78
2023/09/04 10:32:33;;;;;;;3.70;3.40;;;;;;;;;;5084161;28;20524;-81
2023/09/04 10:35:01;;;;;;;3.70;3.40;;;;;;;;;;5083390;28;20466;-80
2023/09/04 10:37:30;;;;;;;5.17;3.73;;;;;;;;;;5083349;28;20456;-79
2023/09/04 10:39:58;;;;;;;5.23;3.40;;;;;;;;;;5083805;28;20491;-79
2023/09/04 10:42:28;;;;;;;3.77;3.47;;;;;;;;;;5083065;28;20550;-80
2023/09/04 10:44:56;;;;;;;6.10;4.37;;;;;;;;;;5081996;28;20432;-80
2023/09/04 10:47:24;;;;;;;4.40;3.90;;;;;;;;;;5080324;28;20820;-79
2023/09/04 10:49:53;;;;;;;3.70;3.40;;;;;;;;;;5083819;28;20782;-80
2023/09/04 10:52:21;;;;;;;3.67;3.37;;;;;;;;;;5083191;28;20585;-81
2023/09/04 10:54:50;;;;;;;4.20;3.63;;;;;;;;;;5080664;28;20927;-78
2023/09/04 10:57:17;;;;;;;4.10;3.60;;;;;;;;;;5079928;28;20788;-78
2023/09/04 11:00:00;;;;;;;4.87;3.63;;;;;;;;;;5081412;28;20447;-79
2023/09/04 11:02:28;;;;;;;3.20;2.90;;;;;;;;;;5080307;28;20874;-79
2023/09/04 11:04:57;;;;;;;4.60;4.20;;;;;;;;;;5078811;28;20484;-78
2023/09/04 11:07:41;;;;;;;4.20;3.33;;;;;;;;;;5080002;28;20451;-79
2023/09/04 11:10:29;;;;;;;4.13;3.17;;;;;;;;;;5078411;28;20804;-79
2023/09/04 11:12:56;;;;;;;3.53;3.23;;;;;;;;;;5079476;28;20467;-78
2023/09/04 11:15:24;;;;;;;3.77;3.43;;;;;;;;;;5079351;28;20466;-79
2023/09/04 11:17:52;;;;;;;3.73;3.40;;;;;;;;;;5079493;28;20456;-79
2023/09/04 11:20:24;;;;;;;4.63;3.53;;;;;;;;;;5081175;28;20452;-80
2023/09/04 11:22:51;;;;;;;5.93;4.83;;;;;;;;;;5080961;28;20550;-81
2023/09/04 11:25:18;;;;;;;3.63;3.33;;;;;;;;;;5081194;28;20834;-79
2023/09/04 11:27:46;;;;;;;4.07;3.67;;;;;;;;;;5081100;28;20973;-77
2023/09/04 11:30:13;;;;;;;3.50;3.20;;;;;;;;;;5078718;28;20456;-82
2023/09/04 11:32:41;;;;;;;5.77;4.10;;;;;;;;;;5078491;28;21050;-82
2023/09/04 11:35:12;;;;;;;4.80;3.33;;;;;;;;;;5080074;28;20450;-80
2023/09/04 11:37:41;;;;;;;6.70;4.90;;;;;;;;;;5080394;28;20448;-82
2023/09/04 11:40:09;;;;;;;4.30;3.83;;;;;;;;;;5080020;28;20495;-82
2023/09/04 11:42:36;;;;;;;4.70;3.30;;;;;;;;;;5079922;28;21071;-80
2023/09/04 11:45:04;;;;;;;6.53;3.67;;;;;;;;;;5079606;28;20912;-80
2023/09/04 11:47:31;;;;;;;4.47;3.93;;;;;;;;;;5078065;28;20841;-81
2023/09/04 11:49:58;;;;;;;3.93;3.50;;;;;;;;;;5079647;28;20805;-80
2023/09/04 11:52:26;;;;;;;5.47;3.77;;;;;;;;;;5079890;28;20476;-80
2023/09/04 11:54:55;;;;;;;5.03;4.63;;;;;;;;;;5080480;28;20428;-80
2023/09/04 11:57:22;;;;;;;5.83;4.20;;;;;;;;;;5078960;28;20451;-81
2023/09/04 11:59:50;;;;;;;6.00;3.53;;;;;;;;;;5079688;28;20539;-81
2023/09/04 12:02:17;;;;;;;3.70;3.40;;;;;;;;;;5079220;28;20471;-81
2023/09/04 12:04:45;;;;;;;4.00;3.60;;;;;;;;;;5079700;28;20550;-81
2023/09/04 12:07:13;;;;;;;5.60;3.57;;;;;;;;;;5079672;28;20448;-81
2023/09/04 12:09:42;;;;;;;4.43;4.03;;;;;;;;;;5080201;28;20463;-81
2023/09/04 12:12:10;;;;;;;4.40;4.00;;;;;;;;;;5079833;28;20455;-81
2023/09/04 12:14:44;;;;;;;3.90;3.50;;;;;;;;;;5080132;28;20447;-80
2023/09/04 12:17:12;;;;;;;7.10;4.27;;;;;;;;;;5079112;28;20845;-80
2023/09/04 12:19:39;;;;;;;5.10;4.13;;;;;;;;;;5080573;28;20447;-80
2023/09/04 12:22:13;;;;;;;4.00;3.70;;;;;;;;;;5079655;28;20448;-80
2023/09/04 12:24:40;;;;;;;4.90;3.40;;;;;;;;;;5078004;28;21049;-80
2023/09/04 12:27:08;;;;;;;4.67;3.80;;;;;;;;;;5078521;28;20472;-80
2023/09/04 12:29:36;;;;;;;6.73;3.37;;;;;;;;;;5079419;28;20455;-80
2023/09/04 12:32:04;;;;;;;6.10;3.93;;;;;;;;;;5078724;28;20450;-81
2023/09/04 12:34:31;;;;;;;4.70;4.20;;;;;;;;;;5079510;28;20460;-80
2023/09/04 12:36:59;;;;;;;4.70;3.63;;;;;;;;;;5079602;28;20452;-79
2023/09/04 12:39:26;;;;;;;4.70;3.90;;;;;;;;;;5079255;28;20444;-79
2023/09/04 12:41:55;;;;;;;5.03;3.90;;;;;;;;;;5078823;28;20456;-79
2023/09/04 12:44:22;;;;;;;6.17;3.93;;;;;;;;;;5079922;28;20548;-79
2023/09/04 12:46:51;;;;;;;5.17;4.63;;;;;;;;;;5079432;28;20448;-79
2023/09/04 12:49:18;;;;;;;3.63;3.33;;;;;;;;;;5077653;28;20459;-79
2023/09/04 12:51:45;;;;;;;4.30;3.90;;;;;;;;;;5078443;28;20550;-79
2023/09/04 12:54:12;;;;;;;4.73;3.50;;;;;;;;;;5078841;28;20546;-79
2023/09/04 12:56:39;;;;;;;13.50;4.30;;;;;;;;;;5078835;28;20446;-80
2023/09/04 12:59:07;;;;;;;6.07;5.30;;;;;;;;;;5078713;28;20452;-78
2023/09/04 13:01:34;;;;;;;4.73;4.30;;;;;;;;;;5080225;28;20454;-79
2023/09/04 13:04:03;;;;;;;7.33;4.17;;;;;;;;;;5078078;28;20492;-79
2023/09/04 13:06:31;;;;;;;8.30;3.97;;;;;;;;;;5079100;28;20452;-79
2023/09/04 13:08:58;;;;;;;5.40;3.87;;;;;;;;;;5079045;28;20452;-79
2023/09/04 13:11:26;;;;;;;4.10;3.70;;;;;;;;;;5079811;28;20454;-78
2023/09/04 13:13:53;;;;;;;5.63;5.03;;;;;;;;;;5079440;28;20521;-80
2023/09/04 13:16:20;;;;;;;5.50;4.23;;;;;;;;;;5079613;28;20456;-79
2023/09/04 13:18:47;;;;;;;4.10;3.70;;;;;;;;;;5078726;28;20912;-79
2023/09/04 13:21:16;;;;;;;4.30;3.90;;;;;;;;;;5079365;28;20451;-79
2023/09/04 13:23:43;;;;;;;7.93;4.33;;;;;;;;;;5079326;28;20499;-79
2023/09/04 13:26:10;;;;;;;8.90;3.83;;;;;;;;;;5078964;28;20466;-80
2023/09/04 13:28:37;;;;;;;8.73;3.80;;;;;;;;;;5079672;28;20959;-79
2023/09/04 13:31:05;;;;;;;4.63;4.17;;;;;;;;;;5078140;28;20468;-80
2023/09/04 13:33:33;;;;;;;5.10;4.03;;;;;;;;;;5079516;28;20499;-79
2023/09/04 13:36:00;;;;;;;4.53;3.67;;;;;;;;;;5076646;28;20983;-77
2023/09/04 13:38:28;;;;;;;3.37;3.00;;;;;;;;;;5074961;28;20443;-76
2023/09/04 13:40:55;;;;;;;3.43;3.13;;;;;;;;;;5073083;28;20823;-78
2023/09/04 13:43:22;;;;;;;3.40;3.10;;;;;;;;;;5071634;28;20468;-77
2023/09/04 13:45:50;;;;;;;3.67;3.33;;;;;;;;;;5075476;28;20454;-80
2023/09/04 13:48:17;;;;;;;3.30;3.00;;;;;;;;;;5074993;28;20478;-78
2023/09/04 13:50:44;;;;;;;3.50;3.20;;;;;;;;;;5077105;28;20550;-78
2023/09/04 13:53:11;;;;;;;2.80;2.60;;;;;;;;;;5077118;28;20476;-78
2023/09/04 13:55:40;;;;;;;3.90;3.23;;;;;;;;;;5078893;28;20984;-77
2023/09/04 13:58:07;;;;;;;4.90;3.40;;;;;;;;;;5076334;28;20457;-76
2023/09/04 14:00:34;;;;;;;4.93;2.33;;;;;;;;;;5075619;28;20451;-77
2023/09/04 14:03:02;;;;;;;3.20;2.90;;;;;;;;;;5075878;28;20479;-76
2023/09/04 14:05:29;;;;;;;5.60;2.90;;;;;;;;;;5075960;28;20487;-77
2023/09/04 14:07:56;;;;;;;3.50;3.20;;;;;;;;;;5077512;28;20494;-78
2023/09/04 14:10:23;;;;;;;3.10;2.83;;;;;;;;;;5076521;28;20455;-77
2023/09/04 14:12:52;;;;;;;3.37;2.90;;;;;;;;;;5075520;28;20464;-77
2023/09/04 14:15:19;;;;;;;5.40;3.10;;;;;;;;;;5075189;28;20439;-78
2023/09/04 14:17:46;;;;;;;5.00;2.73;;;;;;;;;;5075924;28;20451;-78
2023/09/04 14:20:13;;;;;;;3.13;2.43;;;;;;;;;;5076900;28;20958;-75
2023/09/04 14:22:40;;;;;;;2.93;2.50;;;;;;;;;;5075133;28;20479;-76
2023/09/04 14:25:10;;;;;;;5.40;2.80;;;;;;;;;;5076065;28;20979;-78
2023/09/04 14:27:37;;;;;;;6.93;3.00;;;;;;;;;;5075701;28;20448;-77
2023/09/04 14:30:06;;;;;;;3.90;3.50;;;;;;;;;;5075366;28;20451;-77
2023/09/04 14:32:34;;;;;;;3.93;3.53;;;;;;;;;;5076006;28;20546;-77
2023/09/04 14:35:02;;;;;;;3.10;2.70;;;;;;;;;;5075601;28;20535;-77
2023/09/04 14:37:29;;;;;;;3.60;2.90;;;;;;;;;;5075099;28;20481;-76
2023/09/04 14:40:00;;;;;;;8.23;3.10;;;;;;;;;;5074131;28;21166;-77
2023/09/04 14:42:27;;;;;;;3.63;3.10;;;;;;;;;;5075544;28;20528;-78
2023/09/04 14:44:55;;;;;;;3.30;2.77;;;;;;;;;;5076063;28;20483;-76